Stonington, Maine
Current Conditions -  °F | °C
As of 7:35 AM on Friday 24 Oct 2014 (Local Time) from KRKD Reporting Station
Overcast Overcast  
Wind Chill: 44°   Ceiling: 1000
Heat Index: 48°   Visibility: 10mi
Dew Point: 45°   Wind: 9mph
Humidity: 87%   Direction: 360°N
Pressure: 29.63"   Gusts: NA
Location:  44.16°N, 68.67°W
Report Text: KRKD 241135Z AUTO 36008KT 320V040 10SM OVC010 09/07 A2963 RMK AO1
Loading
Personal Weather Stations






























Interactive Weather Map
Tropical Storm Tracking
New forecast layout! Learn more

10-Day Weather Forecast

Advertisements
Track Severe Weather on mobile